Alturas Rancheria, California
Current Conditions -  °F | °C
As of 12:55 PM on Wednesday 17 Dec 2014 (Local Time) from KAAT Reporting Station
Overcast Overcast  
Wind Chill: 38°   Ceiling: 3500
Heat Index: 43°   Visibility: 10mi
Dew Point: 32°   Wind: 9mph
Humidity: 65%   Direction: 170°S
Pressure: 29.89"   Gusts: NA
Location:  41.4836°N, 120.55°W
Report Text: KAAT 172055Z AUTO 17008KT 10SM BKN035 OVC043 06/00 A2989 RMK AO2 SLP122 T00610000 55008
Loading
Personal Weather Stations






























Interactive Weather Map New forecast layout! Learn more

10-Day Weather Forecast

Advertisements
Track Severe Weather on mobile